Terminal Aerodrome Forecast
Issued by NWS Wilmington, OH

Current Version | Previous Version | Text Only | Print | Product List | Glossary Off
Versions: 1 2 3 4 5 6 7 8 9 10 11 12 13 14 15 16 17 18

000
FTUS41 KILN 181100
TAFDAY
TAF
KDAY 181129Z 1812/1912 03005KT P6SM FEW050
     FM181400 05008KT P6SM SCT040
     FM190000 07004KT P6SM FEW050=

USA.gov is the U.S. government's official web portal to all federal, state and local government web resources and services.